MEA211 OLBA-LFPG
Flight info
| Callsign | MEA211 |
|---|---|
| Flight time | N/A |
| Altitude | 34000 |
| Route | KUKLA M31 DESPO DCT BOSIS DCT EVENO DCT BENEM UN127 RIKSO DCT DISOR DCT LONTA UL608 DOLEV DCT YUYUH DCT GENLU DCT PODOB DCT LIKVI DCT MONID DCT RUGOG DCT RIFEN DCT SAFFA DCT ELMUR DCT RIPUS DCT DITON DCT HOC DCT MOROK DCT PENDU DCT JAVVU DCT GIVRI DCT TINIL |
| Aircraft | A320/M-SDE3FGHIRWY/LB1 |
Departure
| Time | 2026-04-30 22:27 |
|---|---|
| Airport | Beirut Rafic Hariri International Airport (OLBA) |
Arrival
| Time | N/A |
|---|---|
| Airport | Charles de Gaulle International Airport (LFPG) |
| Time | Latitude | Longitude | Altitude | Speed | Heading |
|---|---|---|---|---|---|
| 2026-04-30 21:55 | 33.82309 | 35.49175 | 21 ft | 0 kts | 351° |
| 2026-04-30 22:19 | 33.82307 | 35.49176 | 18 ft | 2 kts | 351° |
| 2026-04-30 22:20 | 33.82290 | 35.49179 | 18 ft | 3 kts | 351° |
| 2026-04-30 22:20 | 33.82255 | 35.49185 | 20 ft | 3 kts | 351° |
| 2026-04-30 22:20 | 33.82238 | 35.49188 | 19 ft | 2 kts | 351° |
| 2026-04-30 22:21 | 33.82223 | 35.49196 | 18 ft | 2 kts | 327° |
| 2026-04-30 22:21 | 33.82212 | 35.49210 | 19 ft | 2 kts | 281° |
| 2026-04-30 22:21 | 33.82212 | 35.49211 | 19 ft | 0 kts | 284° |
| 2026-04-30 22:22 | 33.82213 | 35.49207 | 17 ft | 2 kts | 284° |
| 2026-04-30 22:22 | 33.82221 | 35.49170 | 18 ft | 7 kts | 283° |
| 2026-04-30 22:23 | 33.82237 | 35.49091 | 18 ft | 12 kts | 283° |
| 2026-04-30 22:23 | 33.82228 | 35.49022 | 18 ft | 5 kts | 173° |
| 2026-04-30 22:23 | 33.82171 | 35.49031 | 19 ft | 12 kts | 176° |
| 2026-04-30 22:23 | 33.82080 | 35.49038 | 18 ft | 14 kts | 176° |
| 2026-04-30 22:24 | 33.81970 | 35.49046 | 18 ft | 17 kts | 178° |
| 2026-04-30 22:24 | 33.81844 | 35.49053 | 18 ft | 19 kts | 176° |
| 2026-04-30 22:24 | 33.81702 | 35.49064 | 18 ft | 22 kts | 176° |
| 2026-04-30 22:24 | 33.81546 | 35.49062 | 18 ft | 23 kts | 203° |
| 2026-04-30 22:25 | 33.81405 | 35.48947 | 17 ft | 26 kts | 215° |
| 2026-04-30 22:25 | 33.81251 | 35.48816 | 17 ft | 28 kts | 215° |
| 2026-04-30 22:25 | 33.81177 | 35.48705 | 18 ft | 14 kts | 274° |
| 2026-04-30 22:25 | 33.81230 | 35.48685 | 18 ft | 4 kts | 348° |
| 2026-04-30 22:26 | 33.81522 | 35.48581 | 18 ft | 73 kts | 347° |
| 2026-04-30 22:26 | 33.82211 | 35.48389 | 18 ft | 127 kts | 347° |
| 2026-04-30 22:26 | 33.83220 | 35.48110 | 29 ft | 168 kts | 348° |
| 2026-04-30 22:27 | 33.84354 | 35.47771 | 599 ft | 167 kts | 343° |
| 2026-04-30 22:27 | 33.85453 | 35.47324 | 1198 ft | 171 kts | 341° |
| 2026-04-30 22:27 | 33.87732 | 35.45780 | 1606 ft | 213 kts | 303° |
| 2026-04-30 22:28 | 33.89276 | 35.42271 | 2158 ft | 260 kts | 303° |
| 2026-04-30 22:28 | 33.90283 | 35.40434 | 2889 ft | 264 kts | 304° |
| 2026-04-30 22:29 | 33.93405 | 35.34788 | 5179 ft | 276 kts | 301° |
| 2026-04-30 22:29 | 33.94452 | 35.32828 | 5932 ft | 279 kts | 300° |
| 2026-04-30 22:30 | 33.98668 | 35.24701 | 8706 ft | 295 kts | 297° |
| 2026-04-30 22:31 | 34.02005 | 35.18234 | 10270 ft | 323 kts | 298° |
| 2026-04-30 22:32 | 34.05810 | 35.10861 | 11420 ft | 355 kts | 298° |
| 2026-04-30 22:32 | 34.08441 | 35.05766 | 12618 ft | 360 kts | 298° |
| 2026-04-30 22:33 | 34.12438 | 34.97999 | 14354 ft | 366 kts | 299° |
| 2026-04-30 22:33 | 34.15138 | 34.92742 | 15395 ft | 371 kts | 299° |
| 2026-04-30 22:34 | 34.19245 | 34.84733 | 16913 ft | 377 kts | 300° |
| 2026-04-30 22:35 | 34.22018 | 34.79309 | 17921 ft | 382 kts | 300° |
| 2026-04-30 22:36 | 34.27817 | 34.68389 | 19804 ft | 390 kts | 303° |
| 2026-04-30 22:36 | 34.29364 | 34.65696 | 20282 ft | 391 kts | 303° |
| 2026-04-30 22:37 | 34.34021 | 34.57542 | 21653 ft | 394 kts | 303° |
| 2026-04-30 22:37 | 34.35565 | 34.54796 | 22091 ft | 396 kts | 303° |
| 2026-04-30 22:37 | 34.38655 | 34.49258 | 22938 ft | 398 kts | 303° |
| 2026-04-30 22:38 | 34.41761 | 34.43683 | 23739 ft | 401 kts | 303° |
| 2026-04-30 22:38 | 34.44748 | 34.37961 | 24405 ft | 403 kts | 295° |
| 2026-04-30 22:39 | 34.45767 | 34.34798 | 24729 ft | 404 kts | 288° |
| 2026-04-30 22:39 | 34.48434 | 34.25051 | 25693 ft | 408 kts | 288° |
| 2026-04-30 22:40 | 34.51142 | 34.15208 | 26660 ft | 412 kts | 288° |
| 2026-04-30 22:41 | 34.53869 | 34.05257 | 27584 ft | 417 kts | 288° |
| 2026-04-30 22:41 | 34.55694 | 33.98561 | 28206 ft | 420 kts | 288° |
| 2026-04-30 22:42 | 34.59317 | 33.85187 | 29978 ft | 414 kts | 288° |
| 2026-04-30 22:43 | 34.61107 | 33.78575 | 30728 ft | 411 kts | 288° |
| 2026-04-30 22:43 | 34.62917 | 33.72007 | 31436 ft | 410 kts | 290° |
| 2026-04-30 22:44 | 34.65061 | 33.65604 | 32146 ft | 409 kts | 292° |
| 2026-04-30 22:45 | 34.69562 | 33.52978 | 33549 ft | 406 kts | 291° |
| 2026-04-30 22:45 | 34.71724 | 33.46644 | 33984 ft | 408 kts | 291° |
| 2026-04-30 22:47 | 34.78316 | 33.27191 | 33989 ft | 416 kts | 291° |
| 2026-04-30 22:48 | 34.82718 | 33.14182 | 34008 ft | 416 kts | 291° |
| 2026-04-30 22:49 | 34.89297 | 32.94602 | 34009 ft | 417 kts | 291° |
| 2026-04-30 22:51 | 34.95841 | 32.74998 | 34016 ft | 416 kts | 290° |
| 2026-04-30 22:52 | 34.99107 | 32.65210 | 34011 ft | 415 kts | 290° |
| 2026-04-30 22:53 | 35.03428 | 32.52150 | 34011 ft | 415 kts | 290° |
| 2026-04-30 22:53 | 35.06662 | 32.42355 | 34012 ft | 415 kts | 290° |
| 2026-04-30 22:55 | 35.11677 | 32.27088 | 34017 ft | 414 kts | 290° |
| 2026-04-30 22:56 | 35.15946 | 32.14032 | 34020 ft | 413 kts | 290° |
| 2026-04-30 22:57 | 35.21248 | 31.97728 | 34027 ft | 412 kts | 290° |
| 2026-04-30 22:58 | 35.25463 | 31.84716 | 34021 ft | 411 kts | 290° |
| 2026-04-30 22:59 | 35.31741 | 31.65232 | 34026 ft | 409 kts | 290° |